Radiosonde details



Informationen :

Serial : X4950766
Type : Vaisala RS41-SG
Date of production : 05.12.2025
Frequency : 403.920MHz
Launchsite : Bucharest
Nearest town : Breña, PE (1km)

Altitude (Max) : 13958m at 2026-09-01 23:58:04
Speed (Max) : 209km/h at altitude 785m

Average speed : 88km/h
Average ascent rate : 5m/s
Average descent rate : -6m/s
Ascent rate (Max) : 8.6m/s
Descent rate (Max): -16m/s

First frame :
LZ4TU-5 at 2026-09-01 23:08:53 at altitude 2703m (OG: 2661m)
Last frame :
LZ4TU-5 at 2026-09-02 00:25:31 at altitude 785m (OG: 743m)

Flighttime : 1h16m38s
Ascent time : 49m11s
Descent time : 27m27s
Uptime : -
Killtimer : -

Distance (Straight line distance): 11991km

Distance (Route):


Frames : 98


Measurement :

Temperature : 2.2°C
Humidity : 76.3%
Pressure : 0hPa


Vertical profile (SkewT) :


Elevation profile :



Receiving stations :


Receiver Frames First received Last received
LZ4TU-5 98 2026-09-01 23:08:53 2026-09-02 00:25:31

Share per receiver :



All frames :


Receiver Date Latitude Longitude Direction Speed Altitude Climb Temperature Humidity Pressure Voltage Killtimer Uptime BKT XDATA
LZ4TU-52026-09-02 00:25:31-12.04718-77.05336298°206km/h785m4.4m/s2.2°C76.3%0hPa0V00:00:0000:00:0000:00:00
LZ4TU-52026-09-02 00:25:27-12.04718-77.05336298°206km/h785m4.4m/s1.9°C75.5%0hPa0V00:00:0000:00:0000:00:00
LZ4TU-52026-09-02 00:23:52-12.04718-77.05336298°206km/h785m4.4m/s-2.3°C6.7%0hPa0V00:00:0000:00:0000:00:00
LZ4TU-52026-09-02 00:23:48-12.04718-77.05336298°206km/h785m4.4m/s-2.1°C4.7%0hPa0V00:00:0000:00:0000:00:00
LZ4TU-52026-09-02 00:22:12-12.04718-77.05336298°206km/h785m4.4m/s-7.4°C11.8%0hPa0V00:00:0000:00:0000:00:00
LZ4TU-52026-09-02 00:22:08-12.04718-77.05336298°206km/h785m4.4m/s-7.6°C11.2%0hPa0V00:00:0000:00:0000:00:00
LZ4TU-52026-09-02 00:20:34-12.04718-77.05336298°206km/h785m4.4m/s-15.9°C7.8%0hPa0V00:00:0000:00:0000:00:00
LZ4TU-52026-09-02 00:20:29-12.04718-77.05336298°206km/h785m4.4m/s-16.4°C7.5%0hPa0V00:00:0000:00:0000:00:00
LZ4TU-52026-09-02 00:18:53-12.04718-77.05336298°206km/h785m4.4m/s-23.0°C32.2%0hPa0V00:00:0000:00:0000:00:00
LZ4TU-52026-09-02 00:18:48-12.04718-77.05336298°206km/h785m4.4m/s-23.5°C35.8%0hPa0V00:00:0000:00:0000:00:00
LZ4TU-52026-09-02 00:17:13-12.04718-77.05336298°206km/h785m4.4m/s-32.1°C0%0hPa0V00:00:0000:00:0000:00:00
LZ4TU-52026-09-02 00:17:08-12.04718-77.05336298°206km/h785m4.4m/s-32.5°C32.4%0hPa0V00:00:0000:00:0000:00:00
LZ4TU-52026-09-02 00:15:37-12.04718-77.05336298°206km/h785m4.4m/s-39.7°C18.1%0hPa0V00:00:0000:00:0000:00:00
LZ4TU-52026-09-02 00:15:33-12.04718-77.05336298°206km/h785m4.4m/s-40.0°C18.6%0hPa0V00:00:0000:00:0000:00:00
LZ4TU-52026-09-02 00:13:49-12.04718-77.05336298°206km/h785m4.4m/s-47.5°C18.0%0hPa0V00:00:0000:00:0000:00:00
LZ4TU-52026-09-02 00:13:43-12.04718-77.05336298°206km/h785m4.4m/s-47.9°C18.6%0hPa0V00:00:0000:00:0000:00:00
LZ4TU-52026-09-02 00:11:55-12.04718-77.05336298°206km/h785m4.4m/s-54.3°C14.6%0hPa0V00:00:0000:00:0000:00:00
LZ4TU-52026-09-02 00:11:51-12.04718-77.05336298°206km/h785m4.4m/s-54.6°C14.7%0hPa0V00:00:0000:00:0000:00:00
LZ4TU-52026-09-02 00:10:01-12.04718-77.05336298°206km/h785m4.4m/s-57.6°C7.5%0hPa0V00:00:0000:00:0000:00:00
LZ4TU-52026-09-02 00:09:56-12.04718-77.05336298°206km/h785m4.4m/s-58.1°C7.7%0hPa0V00:00:0000:00:0000:00:00
LZ4TU-52026-09-02 00:08:13-12.04718-77.05336298°206km/h785m4.4m/s-60.1°C6.3%0hPa0V00:00:0000:00:0000:00:00
LZ4TU-52026-09-02 00:08:08-12.04718-77.05336298°206km/h785m4.4m/s-60.2°C6.4%0hPa0V00:00:0000:00:0000:00:00
LZ4TU-52026-09-02 00:06:17-12.04782-77.05195291°197km/h786m-3.7m/s-56.5°C4.5%0hPa0V00:00:0000:00:0000:00:00
LZ4TU-52026-09-02 00:04:40-12.04330-77.05827336°197km/h897m-0.6m/s-55.2°C3.8%0hPa0V00:00:0000:00:0000:00:00
LZ4TU-52026-09-02 00:04:35-12.04539-77.05689320°199km/h886m1.9m/s-55.9°C0%0hPa0V00:00:0000:00:0000:00:00
LZ4TU-52026-09-02 00:00:57-12.04188-77.06051340°201km/h1980m-2.2m/s-57.7°C4.2%0hPa0V00:00:0000:00:0000:00:00
LZ4TU-52026-09-02 00:00:49-12.04584-77.05775303°195km/h2105m-12.3m/s-57.1°C4.0%0hPa0V00:00:0000:00:0000:00:00
LZ4TU-52026-09-02 00:00:46-12.04719-77.05611279°197km/h2124m-4.5m/s-56.9°C3.9%0hPa0V00:00:0000:00:0000:00:00
LZ4TU-52026-09-02 00:00:40-12.04748-77.05409279°197km/h2142m-4.5m/s-57.0°C4.0%0hPa0V00:00:0000:00:0000:00:00
LZ4TU-52026-09-02 00:00:29-12.04663-77.04749227°197km/h2191m-1.0m/s-56.5°C3.8%0hPa0V00:00:0000:00:0000:00:00
LZ4TU-52026-09-02 00:00:26-12.04490-77.04562224°197km/h2179m-4.6m/s-56.4°C3.8%0hPa0V00:00:0000:00:0000:00:00
LZ4TU-52026-09-02 00:00:21-12.04288-77.04409205°197km/h2172m-16.0m/s-56.3°C3.7%0hPa0V00:00:0000:00:0000:00:00
LZ4TU-52026-09-02 00:00:14-12.04049-77.04328191°201km/h2186m-10.4m/s-56.3°C3.7%0hPa0V00:00:0000:00:0000:00:00
LZ4TU-52026-09-02 00:00:09-12.03847-77.04310178°203km/h2195m-14.0m/s-56.1°C3.6%0hPa0V00:00:0000:00:0000:00:00
LZ4TU-52026-09-01 23:58:04-54.00593-43.688620km/h13958m0.0m/s-56.6°C1.7%0hPa0V00:00:0000:00:0000:00:00
LZ4TU-52026-09-01 23:57:59-20.00607-72.248250km/h2484m0.0m/s-57.2°C2.6%0hPa0V00:00:0000:00:0000:00:00
LZ4TU-52026-09-01 23:56:22-36.85234-11.784380km/h7651m0.0m/s-57.5°C2.7%0hPa0V00:00:0000:00:0000:00:00
LZ4TU-52026-09-01 23:56:17-15.81727-8.266280km/h1576m0.0m/s-57.2°C3.0%0hPa0V00:00:0000:00:0000:00:00
LZ4TU-52026-09-01 23:54:38-33.26110-16.085680km/h6395m0.0m/s-56.1°C2.8%0hPa0V00:00:0000:00:0000:00:00
LZ4TU-52026-09-01 23:54:33-30.80098-20.620320km/h5572m0.0m/s-56.4°C4.9%0hPa0V00:00:0000:00:0000:00:00
LZ4TU-52026-09-01 23:51:09-12.04808-77.042690km/h975m0.0m/s-58.8°C5.7%0hPa0V00:00:0000:00:0000:00:00
LZ4TU-52026-09-01 23:51:04-12.04808-77.042690km/h975m0.0m/s-58.6°C5.7%0hPa0V00:00:0000:00:0000:00:00
LZ4TU-52026-09-01 23:49:13-12.04808-77.042690km/h975m0.0m/s-58.4°C6.1%0hPa0V00:00:0000:00:0000:00:00
LZ4TU-52026-09-01 23:49:08-12.04808-77.042690km/h975m0.0m/s-58.7°C6.3%0hPa0V00:00:0000:00:0000:00:00
LZ4TU-52026-09-01 23:47:29-12.04761-77.04256196°192km/h976m-0.6m/s-58.7°C6.9%0hPa0V00:00:0000:00:0000:00:00
LZ4TU-52026-09-01 23:47:24-12.04525-77.04191196°192km/h979m-0.6m/s-58.8°C7.2%0hPa0V00:00:0000:00:0000:00:00
LZ4TU-52026-09-01 23:42:234.92677-54.701380km/h156m0.0m/s-59.6°C18.2%0hPa0V00:00:0000:00:0000:00:00
LZ4TU-52026-09-01 23:42:186.57717-54.250650km/h278m0.0m/s-59.4°C18.2%0hPa0V00:00:0000:00:0000:00:00
LZ4TU-52026-09-01 23:40:54-2.04255-56.382060km/h27m0.0m/s-57.2°C18.5%0hPa0V00:00:0000:00:0000:00:00
LZ4TU-52026-09-01 23:40:4910.06844-56.145140km/h648m0.0m/s-57.3°C18.5%0hPa0V00:00:0000:00:0000:00:00
LZ4TU-52026-09-01 23:39:24-6.29854-67.044170km/h255m0.0m/s-55.0°C17.4%0hPa0V00:00:0000:00:0000:00:00
LZ4TU-52026-09-01 23:39:204.48749-79.942180km/h130m0.0m/s-54.9°C18.0%0hPa0V00:00:0000:00:0000:00:00
LZ4TU-52026-09-01 23:39:153.56419-82.291290km/h82m0.0m/s-54.8°C18.4%0hPa0V00:00:0000:00:0000:00:00
LZ4TU-52026-09-01 23:39:115.90446-78.458130km/h224m0.0m/s-54.7°C18.8%0hPa0V00:00:0000:00:0000:00:00
LZ4TU-52026-09-01 23:39:0744.4797326.417900km/h9614m0.0m/s-54.7°C16.1%0hPa0V00:00:0000:00:0000:00:00
LZ4TU-52026-09-01 23:37:4644.4797326.417900km/h9614m0.0m/s-53.6°C21.5%0hPa0V00:00:0000:00:0000:00:00
LZ4TU-52026-09-01 23:37:4244.4797326.417900km/h9614m0.0m/s-53.5°C21.6%0hPa0V00:00:0000:00:0000:00:00
LZ4TU-52026-09-01 23:36:1544.4797326.417900km/h9614m0.0m/s-51.0°C20.7%0hPa0V00:00:0000:00:0000:00:00
LZ4TU-52026-09-01 23:36:1044.4797326.417900km/h9614m0.0m/s-51.0°C20.4%0hPa0V00:00:0000:00:0000:00:00
LZ4TU-52026-09-01 23:34:4644.4797326.417900km/h9614m0.0m/s-48.2°C25.2%0hPa0V00:00:0000:00:0000:00:00
LZ4TU-52026-09-01 23:34:4144.4797326.417900km/h9614m0.0m/s-47.9°C24.9%0hPa0V00:00:0000:00:0000:00:00
LZ4TU-52026-09-01 23:33:2744.4797326.417900km/h9614m0.0m/s-45.4°C24.7%0hPa0V00:00:0000:00:0000:00:00
LZ4TU-52026-09-01 23:33:2244.4797326.417900km/h9614m0.0m/s-45.2°C25.1%0hPa0V00:00:0000:00:0000:00:00
LZ4TU-52026-09-01 23:32:0844.4797326.417900km/h9614m0.0m/s-42.8°C20.5%0hPa0V00:00:0000:00:0000:00:00
LZ4TU-52026-09-01 23:32:0344.4797326.417900km/h9614m0.0m/s-42.6°C20.8%0hPa0V00:00:0000:00:0000:00:00
LZ4TU-52026-09-01 23:30:4744.4795926.4208395°93km/h9630m1.8m/s-39.6°C15.2%0hPa0V00:00:0000:00:0000:00:00
LZ4TU-52026-09-01 23:30:4344.4796526.4195395°93km/h9623m1.8m/s-39.5°C15.1%0hPa0V00:00:0000:00:0000:00:00
LZ4TU-52026-09-01 23:26:1444.4818426.3464596°71km/h8342m5.7m/s-28.2°C0%0hPa0V00:00:0000:00:0000:00:00
LZ4TU-52026-09-01 23:25:1244.4825626.3320197°60km/h7997m5.9m/s-26.2°C51.2%0hPa0V00:00:0000:00:0000:00:00
LZ4TU-52026-09-01 23:25:0744.4826826.3309798°58km/h7974m5.4m/s-26.0°C50.6%0hPa0V00:00:0000:00:0000:00:00
LZ4TU-52026-09-01 23:23:5344.4834026.3160792°64km/h7587m8.2m/s-22.3°C5.0%0hPa0V00:00:0000:00:0000:00:00
LZ4TU-52026-09-01 23:23:4844.4834226.3149991°62km/h7557m6.0m/s-22.1°C5.1%0hPa0V00:00:0000:00:0000:00:00
LZ4TU-52026-09-01 23:22:4644.4830826.3029680°55km/h7259m5.7m/s-20.4°C4.4%0hPa0V00:00:0000:00:0000:00:00
LZ4TU-52026-09-01 23:22:4144.4828926.3021080°49km/h7235m5.6m/s-20.2°C4.6%0hPa0V00:00:0000:00:0000:00:00
LZ4TU-52026-09-01 23:21:2944.4819026.2906686°38km/h6837m5.5m/s-17.5°C6.7%0hPa0V00:00:0000:00:0000:00:00
LZ4TU-52026-09-01 23:21:2444.4818426.2901576°27km/h6814m5.1m/s-17.3°C6.7%0hPa0V00:00:0000:00:0000:00:00
LZ4TU-52026-09-01 23:20:1644.4815326.2811494°51km/h6458m5.1m/s-14.5°C6.9%0hPa0V00:00:0000:00:0000:00:00
LZ4TU-52026-09-01 23:20:1144.4815526.2804280°37km/h6429m8.6m/s-14.3°C7.2%0hPa0V00:00:0000:00:0000:00:00
LZ4TU-52026-09-01 23:19:0444.4827626.2720191°38km/h6046m6.2m/s-11.2°C5.8%0hPa0V00:00:0000:00:0000:00:00
LZ4TU-52026-09-01 23:18:5844.4827226.2713792°29km/h6023m5.1m/s-10.9°C5.8%0hPa0V00:00:0000:00:0000:00:00
LZ4TU-52026-09-01 23:17:5044.4828126.26289112°38km/h5639m7.5m/s-7.9°C5.3%0hPa0V00:00:0000:00:0000:00:00
LZ4TU-52026-09-01 23:17:4544.4828626.2624297°26km/h5610m3.3m/s-7.7°C0%0hPa0V00:00:0000:00:0000:00:00
LZ4TU-52026-09-01 23:16:4344.4844026.2552397°42km/h5267m4.5m/s-5.1°C0%0hPa0V00:00:0000:00:0000:00:00
LZ4TU-52026-09-01 23:16:3844.4845126.25465104°33km/h5240m6.6m/s-4.9°C0%0hPa0V00:00:0000:00:0000:00:00
LZ4TU-52026-09-01 23:15:3644.4841126.2486896°16km/h4896m5.7m/s-3.4°C0%0hPa0V00:00:0000:00:0000:00:00
LZ4TU-52026-09-01 23:15:3144.4841126.2483961°20km/h4868m3.6m/s0°C0%0hPa0V00:00:0000:00:0000:00:00
LZ4TU-52026-09-01 23:14:3044.4850926.24190107°37km/h4546m7.5m/s0°C0%0hPa0V00:00:0000:00:0000:00:00
LZ4TU-52026-09-01 23:14:2544.4852426.24128110°27km/h4516m4.0m/s0°C0%0hPa0V00:00:0000:00:0000:00:00
LZ4TU-52026-09-01 23:13:2244.4853726.2350256°24km/h4157m3.8m/s0°C0%0hPa0V00:00:0000:00:0000:00:00
LZ4TU-52026-09-01 23:13:1744.4851626.2348225°15km/h4130m4.0m/s0°C0%0hPa0V00:00:0000:00:0000:00:00
LZ4TU-52026-09-01 23:12:1544.4853626.23145150°26km/h3786m7.1m/s0°C0%0hPa0V00:00:0000:00:0000:00:00
LZ4TU-52026-09-01 23:12:1144.4854526.2313182°11km/h3765m5.2m/s0°C0%0hPa0V00:00:0000:00:0000:00:00
LZ4TU-52026-09-01 23:11:0944.4873926.22597125°37km/h3427m3.9m/s0°C0%0hPa0V00:00:0000:00:0000:00:00
LZ4TU-52026-09-01 23:11:0544.4876026.22562140°29km/h3402m6.3m/s0°C0%0hPa0V00:00:0000:00:0000:00:00
LZ4TU-52026-09-01 23:10:0444.4901026.21994119°35km/h3079m5.6m/s0°C0%0hPa0V00:00:0000:00:0000:00:00
LZ4TU-52026-09-01 23:09:5944.4903826.21949121°31km/h3054m4.7m/s0°C0%0hPa0V00:00:0000:00:0000:00:00
LZ4TU-52026-09-01 23:08:5744.4930626.21364128°42km/h2726m4.5m/s0°C0%0hPa0V00:00:0000:00:0000:00:00
LZ4TU-52026-09-01 23:08:5344.4933226.21318117°38km/h2703m5.4m/s0°C0%0hPa0V00:00:0000:00:0000:00:00


GPX KML Map

© wettersonde.net (DO2JMG) - 2026  -  -